Time;durP1;ratioP1;P1;durP2;ratioP2;P2;SDS_P1;SDS_P2;PMS_P1;PMS_P2;Temp;Humidity;BMP_temperature;BMP_pressure;BME280_temperature;BME280_humidity;BME280_pressure;Samples;Min_cycle;Max_cycle;Signal;HPM_P1;HPM_P2
2022/02/21 00:02:05;;;;;;;;;55.75;45.00;;;;;-0.67;100.00;100868.03;3724845;38;21276;-59
2022/02/21 00:04:33;;;;;;;;;54.50;44.25;;;;;-0.70;100.00;100871.75;3724851;37;21413;-59
2022/02/21 00:07:02;;;;;;;;;57.25;45.50;;;;;-0.76;100.00;100864.19;3724881;37;21370;-61
2022/02/21 00:09:30;;;;;;;;;51.00;44.50;;;;;-0.70;100.00;100866.44;3724868;38;21664;-62
2022/02/21 00:12:04;;;;;;;;;49.75;43.25;;;;;-0.78;100.00;100871.41;3724706;37;21365;-60
2022/02/21 00:14:32;;;;;;;;;56.00;45.75;;;;;-1.03;100.00;100861.56;3724923;38;21563;-60
2022/02/21 00:17:00;;;;;;;;;50.75;42.25;;;;;-1.14;100.00;100872.09;3724693;37;21375;-59
2022/02/21 00:19:27;;;;;;;;;53.75;44.00;;;;;-1.22;100.00;100866.44;3724929;37;21394;-60
2022/02/21 00:21:54;;;;;;;;;53.50;41.25;;;;;-1.26;100.00;100856.09;3724918;37;21364;-59
2022/02/21 00:24:23;;;;;;;;;31.50;28.00;;;;;-1.26;100.00;100862.28;3724893;38;21356;-61
2022/02/21 00:26:52;;;;;;;;;48.25;43.25;;;;;-1.31;100.00;100847.59;3724897;38;21384;-60
2022/02/21 00:29:20;;;;;;;;;42.50;39.00;;;;;-1.35;100.00;100850.44;3724965;38;21258;-61
2022/02/21 00:31:47;;;;;;;;;43.75;40.75;;;;;-1.34;100.00;100844.19;3724805;38;21337;-61
2022/02/21 00:34:15;;;;;;;;;43.25;41.00;;;;;-1.33;100.00;100837.06;3724833;37;21255;-59
2022/02/21 00:36:42;;;;;;;;;46.00;41.50;;;;;-1.36;100.00;100842.59;3724774;38;21539;-62
2022/02/21 00:39:16;;;;;;;;;48.25;41.75;;;;;-1.33;100.00;100848.53;3724757;38;21254;-59
2022/02/21 00:41:47;;;;;;;;;48.00;43.00;;;;;-1.38;100.00;100850.66;3724937;37;21263;-59
2022/02/21 00:44:14;;;;;;;;;46.50;39.00;;;;;-1.40;100.00;100851.69;3725272;37;21355;-61
2022/02/21 00:46:42;;;;;;;;;42.75;38.00;;;;;-1.37;100.00;100847.03;3725065;38;21302;-58
2022/02/21 00:49:11;;;;;;;;;39.25;35.25;;;;;-1.38;100.00;100845.34;3724889;38;21325;-61
2022/02/21 00:51:38;;;;;;;;;42.75;41.25;;;;;-1.38;100.00;100853.31;3724795;37;21227;-62
2022/02/21 00:54:06;;;;;;;;;50.00;43.75;;;;;-1.41;100.00;100842.03;3724836;38;21342;-60
2022/02/21 00:56:34;;;;;;;;;39.25;35.75;;;;;-1.45;100.00;100848.50;3724881;37;21313;-61
2022/02/21 00:59:07;;;;;;;;;49.00;43.00;;;;;-1.52;100.00;100849.84;3724087;38;21273;-60
2022/02/21 01:01:35;;;;;;;;;38.75;36.75;;;;;-1.56;100.00;100845.72;3724414;38;21516;-59
2022/02/21 01:04:04;;;;;;;;;37.00;32.00;;;;;-1.71;100.00;100810.41;3724099;38;21449;-61
2022/02/21 01:06:32;;;;;;;;;32.00;30.25;;;;;-1.53;100.00;100837.50;3724728;37;21343;-60
2022/02/21 01:08:59;;;;;;;;;35.00;34.25;;;;;-1.53;100.00;100829.56;3724866;37;21314;-59
2022/02/21 01:11:31;;;;;;;;;39.50;35.50;;;;;-1.55;100.00;100837.63;3724838;37;21524;-59
2022/02/21 01:14:00;;;;;;;;;43.50;36.25;;;;;-1.64;100.00;100837.37;3724943;37;21316;-61
2022/02/21 01:16:29;;;;;;;;;40.75;35.75;;;;;-1.73;100.00;100828.22;3729863;37;21272;-61
2022/02/21 01:18:59;;;;;;;;;35.50;33.50;;;;;-1.67;100.00;100827.81;3732699;37;21205;-60
2022/02/21 01:21:29;;;;;;;;;37.50;32.00;;;;;-1.64;100.00;100837.37;3732476;37;21309;-59
2022/02/21 01:24:01;;;;;;;;;46.50;41.25;;;;;-1.64;100.00;100840.87;3732093;37;21204;-60
2022/02/21 01:26:29;;;;;;;;;33.00;31.50;;;;;-1.59;100.00;100830.84;3731963;37;21192;-61
2022/02/21 01:28:57;;;;;;;;;36.75;34.50;;;;;-1.45;100.00;100837.88;3725036;37;21409;-59
2022/02/21 01:31:29;;;;;;;;;44.50;39.00;;;;;-1.44;100.00;100832.47;3725428;38;21281;-60
2022/02/21 01:33:57;;;;;;;;;37.25;35.00;;;;;-1.42;100.00;100822.59;3725371;38;21224;-61
2022/02/21 01:36:24;;;;;;;;;45.25;35.25;;;;;-1.40;100.00;100828.66;3725416;37;21285;-61
2022/02/21 01:38:51;;;;;;;;;45.00;39.50;;;;;-1.36;100.00;100829.31;3725262;37;21258;-60
2022/02/21 01:41:20;;;;;;;;;38.25;35.75;;;;;-1.39;100.00;100835.66;3725107;37;21295;-59
2022/02/21 01:43:48;;;;;;;;;39.00;34.75;;;;;-1.38;100.00;100824.09;3724769;38;21361;-62
2022/02/21 01:46:17;;;;;;;;;45.50;39.25;;;;;-1.29;100.00;100830.59;3725032;38;21265;-59
2022/02/21 01:48:45;;;;;;;;;17.25;15.50;;;;;-1.39;100.00;100830.34;3724929;38;21154;-61
2022/02/21 01:51:14;;;;;;;;;49.25;41.00;;;;;-1.46;100.00;100825.56;3724479;37;21221;-62
2022/02/21 01:53:47;;;;;;;;;37.50;37.25;;;;;-1.52;100.00;100824.16;3724310;37;21452;-60
2022/02/21 01:56:25;;;;;;;;;38.50;35.25;;;;;-1.51;100.00;100809.91;3724045;38;21187;-60
2022/02/21 01:59:17;;;;;;;;;48.00;39.00;;;;;-1.41;100.00;100818.12;3723966;37;21161;-62
2022/02/21 02:01:48;;;;;;;;;42.50;37.50;;;;;-1.47;100.00;100813.22;3723985;38;21386;-59
2022/02/21 02:04:16;;;;;;;;;41.50;37.50;;;;;-1.48;100.00;100822.16;3724433;38;21208;-61
2022/02/21 02:06:44;;;;;;;;;43.50;41.00;;;;;-1.54;100.00;100827.84;3724222;37;21230;-62
2022/02/21 02:09:11;;;;;;;;;34.00;34.00;;;;;-1.45;100.00;100827.25;3724452;38;21107;-60
2022/02/21 02:11:39;;;;;;;;;39.50;35.00;;;;;-1.39;100.00;100819.75;3724806;38;21432;-62
2022/02/21 02:14:07;;;;;;;;;37.50;36.75;;;;;-1.34;100.00;100824.75;3724973;38;21213;-60
2022/02/21 02:16:35;;;;;;;;;42.75;38.00;;;;;-1.35;100.00;100823.91;3724897;38;21186;-61
2022/02/21 02:19:04;;;;;;;;;44.25;37.75;;;;;-1.45;100.00;100806.87;3724997;37;21163;-63
2022/02/21 02:21:38;;;;;;;;;46.00;42.00;;;;;-1.34;100.00;100820.28;3725163;37;21180;-59
2022/02/21 02:24:07;;;;;;;;;44.00;37.25;;;;;-1.37;100.00;100831.09;3725253;38;21302;-61
2022/02/21 02:26:40;;;;;;;;;38.75;36.75;;;;;-1.36;100.00;100816.87;3725020;38;21201;-61
2022/02/21 02:29:09;;;;;;;;;48.25;40.50;;;;;-1.34;100.00;100822.94;3725025;37;21120;-61
2022/02/21 02:31:37;;;;;;;;;45.00;40.00;;;;;-1.36;100.00;100813.37;3725040;38;21171;-59
2022/02/21 02:34:04;;;;;;;;;47.25;39.00;;;;;-1.36;100.00;100811.56;3724967;38;21184;-61
2022/02/21 02:36:31;;;;;;;;;44.25;39.50;;;;;-1.38;100.00;100797.56;3725012;37;21152;-60
2022/02/21 02:39:00;;;;;;;;;44.00;39.25;;;;;-1.36;100.00;100800.09;3724851;38;21157;-60
2022/02/21 02:41:28;;;;;;;;;43.75;36.75;;;;;-1.41;100.00;100802.22;3724904;37;21173;-60
2022/02/21 02:44:05;;;;;;;;;34.75;33.50;;;;;-1.41;100.00;100797.75;3725094;38;21220;-63
2022/02/21 02:46:34;;;;;;;;;42.50;39.75;;;;;-1.39;100.00;100785.22;3725142;38;21469;-62
2022/02/21 02:49:04;;;;;;;;;49.00;40.25;;;;;-1.42;100.00;100779.28;3724595;37;21367;-59
2022/02/21 02:51:31;;;;;;;;;38.75;35.75;;;;;-1.44;100.00;100774.06;3724997;37;21319;-60
2022/02/21 02:53:59;;;;;;;;;52.25;43.00;;;;;-1.42;100.00;100777.47;3724888;38;21174;-60
2022/02/21 02:56:27;;;;;;;;;48.00;41.75;;;;;-1.47;100.00;100773.41;3725152;38;21206;-59
2022/02/21 02:58:54;;;;;;;;;47.00;39.75;;;;;-1.53;100.00;100781.78;3725337;37;21141;-62
2022/02/21 03:01:23;;;;;;;;;44.75;41.50;;;;;-1.53;100.00;100787.09;3725383;38;21163;-63
2022/02/21 03:03:51;;;;;;;;;45.25;39.00;;;;;-1.53;100.00;100779.13;3725179;38;21044;-60
2022/02/21 03:06:19;;;;;;;;;55.75;42.50;;;;;-1.56;100.00;100772.22;3725155;38;21266;-62
2022/02/21 03:08:46;;;;;;;;;42.75;37.50;;;;;-1.61;100.00;100770.84;3725394;37;21175;-60
2022/02/21 03:11:15;;;;;;;;;49.50;41.75;;;;;-1.64;100.00;100777.22;3725016;37;21046;-59
2022/02/21 03:13:42;;;;;;;;;41.00;38.75;;;;;-1.60;100.00;100777.84;3725095;38;21229;-61
2022/02/21 03:16:10;;;;;;;;;46.25;42.00;;;;;-1.58;100.00;100786.56;3724950;38;21074;-59
2022/02/21 03:18:38;;;;;;;;;45.75;41.00;;;;;-1.63;100.00;100778.06;3724954;37;21137;-60
2022/02/21 03:21:08;;;;;;;;;46.00;39.50;;;;;-1.65;100.00;100775.50;3724974;38;21204;-60
2022/02/21 03:23:36;;;;;;;;;43.50;40.50;;;;;-1.60;100.00;100777.84;3724514;37;21040;-59
2022/02/21 03:26:04;;;;;;;;;47.75;42.75;;;;;-1.57;100.00;100782.97;3725002;37;21122;-63
2022/02/21 03:28:36;;;;;;;;;39.50;33.75;;;;;-1.59;100.00;100777.75;3725065;38;21118;-60
2022/02/21 03:31:03;;;;;;;;;37.00;34.50;;;;;-1.61;100.00;100776.16;3724525;37;21130;-60
2022/02/21 03:33:31;;;;;;;;;45.50;40.00;;;;;-1.58;100.00;100774.16;3724850;38;21091;-63
2022/02/21 03:36:05;;;;;;;;;42.25;38.75;;;;;-1.58;100.00;100775.94;3724895;37;21263;-61
2022/02/21 03:38:34;;;;;;;;;45.00;39.00;;;;;-1.61;100.00;100771.69;3724589;38;21218;-62
2022/02/21 03:41:01;;;;;;;;;41.25;39.00;;;;;-1.63;100.00;100768.28;3724861;37;21008;-62
2022/02/21 03:43:30;;;;;;;;;45.00;40.50;;;;;-1.67;100.00;100764.12;3724831;37;21313;-60
2022/02/21 03:45:57;;;;;;;;;44.75;40.50;;;;;-1.67;100.00;100762.34;3724977;38;21177;-60
2022/02/21 03:48:25;;;;;;;;;42.25;39.00;;;;;-1.72;100.00;100764.44;3724939;37;21127;-61
2022/02/21 03:50:59;;;;;;;;;40.75;37.25;;;;;-1.78;100.00;100754.22;3724327;38;21088;-61
2022/02/21 03:53:26;;;;;;;;;47.50;39.50;;;;;-1.79;100.00;100752.53;3725124;38;21334;-60
2022/02/21 03:55:56;;;;;;;;;51.00;40.75;;;;;-1.83;100.00;100748.38;3725070;37;21053;-59
2022/02/21 03:58:26;;;;;;;;;39.75;33.50;;;;;-1.80;100.00;100747.31;3724919;37;21275;-59
2022/02/21 04:01:00;;;;;;;;;51.00;40.25;;;;;-1.79;100.00;100736.59;3724885;38;20996;-60
2022/02/21 04:03:29;;;;;;;;;43.75;40.25;;;;;-1.77;100.00;100734.69;3725023;37;21111;-62
2022/02/21 04:05:58;;;;;;;;;38.75;33.75;;;;;-1.75;100.00;100731.94;3724951;38;21042;-60
2022/02/21 04:08:27;;;;;;;;;41.25;38.75;;;;;-1.77;100.00;100717.94;3725053;38;21049;-60
2022/02/21 04:10:54;;;;;;;;;38.00;36.00;;;;;-1.75;100.00;100726.66;3724435;38;21111;-60
2022/02/21 04:13:21;;;;;;;;;52.75;44.25;;;;;-1.72;100.00;100724.63;3724939;37;21031;-62
2022/02/21 04:15:49;;;;;;;;;49.50;41.00;;;;;-1.78;100.00;100717.09;3724925;37;21048;-59
2022/02/21 04:18:18;;;;;;;;;48.50;42.25;;;;;-1.78;100.00;100717.09;3724896;37;21080;-61
2022/02/21 04:20:47;;;;;;;;;48.25;41.50;;;;;-1.84;100.00;100712.19;3725269;37;21043;-59
2022/02/21 04:23:16;;;;;;;;;37.50;37.25;;;;;-1.87;100.00;100712.38;3725355;38;21026;-60
2022/02/21 04:25:45;;;;;;;;;49.75;43.75;;;;;-1.98;100.00;100700.75;3724767;38;21063;-59
2022/02/21 04:28:15;;;;;;;;;44.00;40.25;;;;;-1.93;100.00;100703.97;3724484;37;20942;-60
2022/02/21 04:30:44;;;;;;;;;49.50;44.50;;;;;-2.15;100.00;100672.72;3724901;37;21387;-61
2022/02/21 04:33:13;;;;;;;;;49.00;41.75;;;;;-1.90;100.00;100715.22;3724451;37;21210;-64
2022/02/21 04:35:40;;;;;;;;;64.75;52.75;;;;;-1.89;100.00;100713.44;3724805;37;21229;-61
2022/02/21 04:38:08;;;;;;;;;66.25;51.75;;;;;-1.80;100.00;100696.91;3724837;38;21223;-62
2022/02/21 04:40:35;;;;;;;;;72.50;55.50;;;;;-1.68;100.00;100704.91;3724799;37;21032;-61
2022/02/21 04:43:03;;;;;;;;;64.25;53.50;;;;;-1.74;100.00;100707.13;3724915;38;21209;-62
2022/02/21 04:45:31;;;;;;;;;62.50;48.50;;;;;-1.76;100.00;100698.41;3724983;38;20978;-61
2022/02/21 04:48:01;;;;;;;;;64.00;53.25;;;;;-1.79;100.00;100696.81;3724292;38;21390;-59
2022/02/21 04:50:30;;;;;;;;;66.50;55.75;;;;;-1.71;100.00;100697.16;3725312;37;21010;-59
2022/02/21 04:52:58;;;;;;;;;69.25;56.00;;;;;-1.68;100.00;100698.75;3724949;38;21022;-61
2022/02/21 04:55:27;;;;;;;;;67.00;54.00;;;;;-1.65;100.00;100703.00;3724611;38;20923;-59
2022/02/21 04:58:01;;;;;;;;;66.75;52.00;;;;;-1.67;100.00;100700.47;3724951;38;20995;-61
2022/02/21 05:00:28;;;;;;;;;66.25;53.50;;;;;-1.70;100.00;100705.97;3725087;37;20918;-59
2022/02/21 05:02:56;;;;;;;;;74.50;60.50;;;;;-1.69;100.00;100700.56;3724586;38;21003;-60
2022/02/21 05:05:24;;;;;;;;;80.50;59.50;;;;;-1.74;100.00;100697.34;3724531;38;21004;-60
2022/02/21 05:07:57;;;;;;;;;70.00;57.00;;;;;-1.78;100.00;100693.22;3724708;38;21212;-60
2022/02/21 05:10:26;;;;;;;;;71.25;57.75;;;;;-1.78;100.00;100698.50;3725096;37;21167;-61
2022/02/21 05:12:55;;;;;;;;;81.50;62.50;;;;;-1.84;100.00;100680.34;3725146;38;20959;-60
2022/02/21 05:15:29;;;;;;;;;76.00;59.00;;;;;-1.67;100.00;100692.50;3724829;38;21156;-63
2022/02/21 05:17:56;;;;;;;;;76.75;60.25;;;;;-1.66;100.00;100688.88;3724639;38;20971;-63
2022/02/21 05:20:24;;;;;;;;;70.25;56.75;;;;;-1.62;100.00;100679.78;3725082;37;20963;-61
2022/02/21 05:22:52;;;;;;;;;75.00;56.25;;;;;-1.62;100.00;100665.66;3725295;37;20948;-62
2022/02/21 05:25:20;;;;;;;;;80.00;61.75;;;;;-1.43;100.00;100687.31;3726647;38;20995;-65
2022/02/21 05:27:57;;;;;;;;;73.75;58.25;;;;;-1.40;100.00;100692.41;3726441;37;20866;-62
2022/02/21 05:30:30;;;;;;;;;66.75;52.00;;;;;-1.35;100.00;100680.53;3724954;37;20972;-62
2022/02/21 05:32:59;;;;;;;;;84.75;65.00;;;;;-1.32;100.00;100682.13;3725331;37;20971;-61
2022/02/21 05:35:26;;;;;;;;;78.00;61.75;;;;;-1.31;100.00;100686.50;3725127;38;18136;-61
2022/02/21 05:37:54;;;;;;;;;72.50;57.00;;;;;-1.35;100.00;100690.31;3725180;37;18117;-62
2022/02/21 05:40:22;;;;;;;;;77.25;61.00;;;;;-1.40;100.00;100677.34;3725345;38;20903;-62
2022/02/21 05:42:49;;;;;;;;;69.25;57.00;;;;;-1.24;100.00;100684.25;3724917;37;21150;-60
2022/02/21 05:45:19;;;;;;;;;75.25;58.75;;;;;-1.20;100.00;100686.59;3725061;37;20938;-60
2022/02/21 05:47:47;;;;;;;;;74.75;59.00;;;;;-1.16;100.00;100672.16;3724999;37;20844;-60
2022/02/21 05:50:15;;;;;;;;;73.00;57.75;;;;;-1.13;100.00;100665.78;3725172;38;20888;-59
2022/02/21 05:52:42;;;;;;;;;86.00;66.50;;;;;-1.12;100.00;100665.69;3725049;37;20957;-64
2022/02/21 05:55:10;;;;;;;;;82.00;65.50;;;;;-1.01;100.00;100672.88;3725101;38;18124;-63
2022/02/21 05:57:37;;;;;;;;;95.00;78.00;;;;;-0.91;100.00;100673.09;3725171;37;18126;-59
2022/02/21 06:00:11;;;;;;;;;98.50;84.25;;;;;-1.44;100.00;100574.12;3725715;37;18106;-63
2022/02/21 06:02:40;;;;;;;;;92.00;71.75;;;;;-0.70;100.00;100658.28;3725135;38;18047;-62
2022/02/21 06:05:09;;;;;;;;;90.25;67.00;;;;;-0.58;100.00;100645.94;3725230;37;18093;-61
2022/02/21 06:07:36;;;;;;;;;82.75;62.75;;;;;-0.32;100.00;100652.00;3724963;37;18141;-61
2022/02/21 06:10:05;;;;;;;;;71.25;56.75;;;;;-0.24;100.00;100631.03;3724836;38;18093;-62
2022/02/21 06:12:34;;;;;;;;;65.00;54.00;;;;;-0.01;100.00;100647.00;3725313;38;20931;-61
2022/02/21 06:15:02;;;;;;;;;59.75;50.25;;;;;0.11;100.00;100639.03;3724478;37;20956;-63
2022/02/21 06:17:30;;;;;;;;;58.75;45.75;;;;;0.23;100.00;100628.31;3725047;38;20910;-60
2022/02/21 06:19:57;;;;;;;;;94.75;82.00;;;;;0.32;100.00;100622.31;3724841;37;20816;-58
2022/02/21 06:22:27;;;;;;;;;66.75;54.50;;;;;0.47;100.00;100617.63;3725052;38;18372;-61
2022/02/21 06:24:55;;;;;;;;;61.25;50.50;;;;;0.58;100.00;100619.44;3724855;37;20953;-62
2022/02/21 06:27:24;;;;;;;;;52.25;44.75;;;;;0.70;100.00;100594.50;3724879;38;20815;-60
2022/02/21 06:29:53;;;;;;;;;45.00;39.25;;;;;0.81;100.00;100589.19;3724512;37;20873;-62
2022/02/21 06:32:23;;;;;;;;;36.75;35.75;;;;;0.88;100.00;100579.75;3724601;38;20763;-64
2022/02/21 06:34:51;;;;;;;;;37.00;36.50;;;;;0.98;100.00;100575.41;3725402;37;20879;-61
2022/02/21 06:37:19;;;;;;;;;38.00;34.75;;;;;1.13;100.00;100572.44;3724946;37;21047;-61
2022/02/21 06:39:49;;;;;;;;;36.25;35.00;;;;;1.27;100.00;100585.53;3724552;37;20835;-62
2022/02/21 06:42:19;;;;;;;;;41.75;39.00;;;;;1.39;100.00;100591.69;3724664;38;20850;-60
2022/02/21 06:44:48;;;;;;;;;38.25;35.50;;;;;1.49;100.00;100597.97;3724670;38;20743;-63
2022/02/21 06:47:15;;;;;;;;;34.25;31.75;;;;;1.47;100.00;100592.78;3724753;37;20772;-62
2022/02/21 06:49:44;;;;;;;;;37.75;37.00;;;;;1.62;100.00;100586.16;3724958;38;20799;-63
2022/02/21 06:52:11;;;;;;;;;32.25;32.00;;;;;1.80;100.00;100589.16;3724958;37;21009;-63
2022/02/21 06:54:38;;;;;;;;;34.00;31.75;;;;;1.95;100.00;100590.53;3724829;38;20830;-59
2022/02/21 06:57:11;;;;;;;;;38.00;35.75;;;;;2.13;100.00;100590.81;3725153;38;20753;-64
2022/02/21 06:59:40;;;;;;;;;44.00;39.75;;;;;2.31;100.00;100581.25;3724852;37;20752;-59
2022/02/21 07:02:08;;;;;;;;;47.00;39.50;;;;;2.42;100.00;100585.69;3724971;38;20822;-59
2022/02/21 07:04:37;;;;;;;;;43.50;39.25;;;;;2.58;100.00;100585.22;3725095;37;20826;-61
2022/02/21 07:07:04;;;;;;;;;43.50;37.00;;;;;2.71;100.00;100576.97;3725156;38;20827;-59
2022/02/21 07:09:33;;;;;;;;;38.75;34.50;;;;;2.84;100.00;100561.56;3724968;38;20815;-58
2022/02/21 07:12:00;;;;;;;;;47.00;39.50;;;;;2.95;100.00;100561.47;3724748;37;20792;-59
2022/02/21 07:14:28;;;;;;;;;41.00;37.75;;;;;3.14;100.00;100568.69;3724935;37;20984;-58
2022/02/21 07:16:57;;;;;;;;;39.75;35.75;;;;;3.26;100.00;100562.25;3724937;37;20807;-59
2022/02/21 07:19:27;;;;;;;;;18.00;15.00;;;;;3.40;100.00;100551.19;3724962;37;20790;-57
2022/02/21 07:21:55;;;;;;;;;52.75;42.25;;;;;3.56;100.00;100540.78;3724533;37;20695;-58
2022/02/21 07:24:26;;;;;;;;;52.50;43.00;;;;;3.74;100.00;100534.72;3725000;37;20815;-62
2022/02/21 07:26:57;;;;;;;;;52.00;43.25;;;;;3.88;100.00;100518.25;3724568;38;20967;-59
2022/02/21 07:29:28;;;;;;;;;49.50;42.25;;;;;4.01;100.00;100516.13;3724334;38;20809;-59
2022/02/21 07:31:58;;;;;;;;;48.25;40.75;;;;;4.17;100.00;100511.00;3724767;38;20793;-59
2022/02/21 07:34:26;;;;;;;;;45.50;36.75;;;;;4.26;100.00;100502.13;3724680;38;20693;-59
2022/02/21 07:36:53;;;;;;;;;49.00;41.50;;;;;4.42;100.00;100500.66;3724526;38;20804;-59
2022/02/21 07:39:20;;;;;;;;;46.25;39.25;;;;;4.52;100.00;100483.56;3724697;37;20801;-58
2022/02/21 07:41:48;;;;;;;;;47.25;39.75;;;;;4.71;100.00;100481.78;3724737;38;20747;-58
2022/02/21 07:44:17;;;;;;;;;47.50;38.50;;;;;4.85;100.00;100490.19;3725002;37;20777;-58
2022/02/21 07:46:44;;;;;;;;;46.50;37.75;;;;;4.99;100.00;100478.97;3725069;37;20790;-59
2022/02/21 07:49:13;;;;;;;;;49.25;39.75;;;;;5.14;100.00;100467.75;3725286;37;20765;-58
2022/02/21 07:51:42;;;;;;;;;50.50;38.25;;;;;5.25;100.00;100459.44;3725266;37;20890;-58
2022/02/21 07:54:09;;;;;;;;;45.75;39.50;;;;;5.41;100.00;100454.25;3725092;38;20785;-59
2022/02/21 07:56:38;;;;;;;;;46.75;39.25;;;;;5.59;100.00;100456.94;3724960;37;20656;-59
2022/02/21 07:59:06;;;;;;;;;46.25;36.75;;;;;5.72;100.00;100454.69;3725049;37;20764;-59
2022/02/21 08:01:34;;;;;;;;;37.50;34.50;;;;;5.95;100.00;100455.91;3724880;37;20755;-58
2022/02/21 08:04:07;;;;;;;;;41.25;35.25;;;;;6.17;100.00;100451.88;3724707;37;20777;-57
2022/02/21 08:06:35;;;;;;;;;29.50;25.50;;;;;6.40;100.00;100449.47;3725055;37;20699;-59
2022/02/21 08:09:03;;;;;;;;;24.75;23.00;;;;;6.64;100.00;100456.84;3724951;37;20686;-57
2022/02/21 08:11:31;;;;;;;;;16.75;14.00;;;;;6.88;100.00;100451.53;3724830;37;20796;-59
2022/02/21 08:14:00;;;;;;;;;13.50;13.00;;;;;7.14;100.00;100461.41;3725093;38;20653;-59
2022/02/21 08:16:27;;;;;;;;;14.00;12.75;;;;;7.37;100.00;100459.75;3724950;37;20603;-61
2022/02/21 08:18:54;;;;;;;;;16.00;14.50;;;;;7.53;100.00;100465.16;3725041;38;20830;-60
2022/02/21 08:21:22;;;;;;;;;17.75;16.00;;;;;7.70;100.00;100457.13;3724971;38;20780;-59
2022/02/21 08:23:51;;;;;;;;;14.00;13.25;;;;;7.83;100.00;100462.81;3725014;38;20579;-61
2022/02/21 08:26:20;;;;;;;;;19.75;18.25;;;;;7.89;100.00;100459.44;3725105;38;20808;-58
2022/02/21 08:28:50;;;;;;;;;19.00;17.25;;;;;7.95;100.00;100456.09;3724716;37;20667;-58
2022/02/21 08:31:20;;;;;;;;;19.00;17.00;;;;;8.05;98.83;100464.84;3725214;37;20595;-59
2022/02/21 08:33:48;;;;;;;;;15.25;15.25;;;;;8.10;96.79;100458.94;3725205;38;20563;-61
2022/02/21 08:36:17;;;;;;;;;21.00;19.75;;;;;8.13;98.75;100442.44;3725120;37;20656;-59
2022/02/21 08:38:45;;;;;;;;;36.75;34.75;;;;;8.36;97.36;100445.25;3724933;37;20556;-59
2022/02/21 08:41:12;;;;;;;;;16.00;14.25;;;;;8.50;96.82;100440.00;3725182;37;20654;-58
2022/02/21 08:43:40;;;;;;;;;16.25;16.00;;;;;8.55;95.47;100434.09;3725153;37;20839;-59
2022/02/21 08:46:10;;;;;;;;;19.00;18.50;;;;;8.62;94.32;100437.78;3724933;37;20654;-60
2022/02/21 08:48:38;;;;;;;;;20.75;20.25;;;;;8.57;91.73;100429.38;3724957;37;20837;-58
2022/02/21 08:51:07;;;;;;;;;17.25;16.75;;;;;8.62;91.46;100424.28;3724880;37;20817;-60
2022/02/21 08:53:35;;;;;;;;;20.75;20.50;;;;;8.68;92.92;100420.91;3724945;38;20637;-60
2022/02/21 08:56:03;;;;;;;;;19.00;18.00;;;;;8.75;91.83;100408.38;3724926;37;20637;-60
2022/02/21 08:58:32;;;;;;;;;28.25;26.75;;;;;8.85;92.00;100408.16;3725045;38;20582;-59
2022/02/21 09:01:00;;;;;;;;;26.25;23.25;;;;;8.91;92.18;100392.09;3724928;38;20599;-58
2022/02/21 09:03:32;;;;;;;;;18.50;17.50;;;;;9.00;91.45;100401.00;3724916;38;20597;-59
2022/02/21 09:06:01;;;;;;;;;16.75;15.50;;;;;9.08;91.19;100392.00;3724534;37;20677;-60
2022/02/21 09:08:32;;;;;;;;;19.25;18.00;;;;;9.17;90.44;100391.78;3725066;37;20626;-57
2022/02/21 09:11:08;;;;;;;;;18.75;17.50;;;;;9.26;88.03;100379.06;3724644;37;20523;-59
2022/02/21 09:13:37;;;;;;;;;18.75;14.75;;;;;9.25;89.59;100375.53;3725398;38;20509;-58
2022/02/21 09:16:08;;;;;;;;;17.75;17.00;;;;;9.24;87.39;100359.50;3725304;38;20751;-58
2022/02/21 09:18:36;;;;;;;;;23.00;18.75;;;;;9.32;87.96;100355.91;3725354;37;20749;-60
2022/02/21 09:21:04;;;;;;;;;20.00;19.00;;;;;9.43;87.03;100342.78;3725486;37;20640;-58
2022/02/21 09:23:31;;;;;;;;;21.00;18.50;;;;;9.62;84.96;100341.44;3724927;38;20673;-59
2022/02/21 09:25:59;;;;;;;;;19.50;19.50;;;;;9.76;84.49;100339.81;3725082;37;20591;-61
2022/02/21 09:28:27;;;;;;;;;18.25;17.50;;;;;9.82;82.81;100325.56;3725195;38;20621;-59
2022/02/21 09:30:55;;;;;;;;;23.25;22.75;;;;;9.91;82.51;100327.12;3725095;37;20642;-61
2022/02/21 09:33:24;;;;;;;;;24.00;23.75;;;;;10.01;81.43;100325.00;3725199;38;20575;-58
2022/02/21 09:35:53;;;;;;;;;21.25;20.50;;;;;10.18;81.40;100314.84;3725146;37;20576;-59
2022/02/21 09:38:24;;;;;;;;;24.25;21.00;;;;;10.24;81.65;100309.56;3724732;37;20617;-59
2022/02/21 09:40:56;;;;;;;;;29.25;25.50;;;;;10.50;79.39;100295.50;3725013;37;20566;-60
2022/02/21 09:43:29;;;;;;;;;21.75;21.25;;;;;10.61;77.46;100299.59;3725146;37;20573;-58
2022/02/21 09:45:59;;;;;;;;;24.50;23.75;;;;;10.79;77.97;100289.19;3725074;37;20619;-60
2022/02/21 09:48:27;;;;;;;;;19.25;19.25;;;;;11.00;76.92;100284.81;3724924;38;20560;-60
2022/02/21 09:51:01;;;;;;;;;24.00;20.50;;;;;11.25;73.25;100280.69;3724960;37;20560;-60
2022/02/21 09:53:31;;;;;;;;;25.25;22.50;;;;;11.45;71.08;100256.44;3725224;37;20556;-59
2022/02/21 09:55:58;;;;;;;;;20.00;18.75;;;;;11.66;69.41;100253.69;3724944;37;20452;-58
2022/02/21 09:58:29;;;;;;;;;15.75;14.75;;;;;11.57;66.64;100253.00;3724818;38;20733;-57
2022/02/21 10:00:57;;;;;;;;;15.75;12.75;;;;;11.79;67.71;100239.41;3724475;38;20807;-58
2022/02/21 10:03:41;;;;;;;;;15.25;15.25;;;;;12.02;64.24;100239.09;3724644;37;20527;-58
2022/02/21 10:06:31;;;;;;;;;17.75;17.75;;;;;12.30;62.20;100234.44;3724896;38;20653;-58
2022/02/21 10:09:01;;;;;;;;;18.50;15.75;;;;;12.40;61.83;100213.19;3725334;37;20621;-59
2022/02/21 10:11:32;;;;;;;;;13.00;13.00;;;;;12.73;63.70;100213.25;3725496;37;20651;-58
2022/02/21 10:14:19;;;;;;;;;16.50;15.75;;;;;12.81;59.08;100218.50;3726307;37;20650;-58
2022/02/21 10:16:49;;;;;;;;;15.00;13.75;;;;;12.83;57.01;100211.00;3725647;38;20590;-58
2022/02/21 10:19:41;;;;;;;;;14.25;13.25;;;;;12.94;55.65;100195.97;3726304;38;20668;-57
2022/02/21 10:22:14;;;;;;;;;11.00;11.00;;;;;13.04;57.08;100190.09;3726482;37;20637;-57
2022/02/21 10:24:46;;;;;;;;;12.25;10.75;;;;;13.11;55.03;100196.37;3725826;38;20626;-62
2022/02/21 10:27:29;;;;;;;;;12.25;11.00;;;;;13.16;54.37;100192.00;3725407;38;20583;-58
2022/02/21 10:30:09;;;;;;;;;14.75;14.25;;;;;13.16;52.77;100185.75;3725278;38;20596;-59
2022/02/21 10:32:39;;;;;;;;;16.00;14.00;;;;;13.10;52.03;100192.81;3725105;37;20646;-59
2022/02/21 10:35:12;;;;;;;;;16.75;14.50;;;;;13.07;52.95;100193.22;3725011;37;20622;-61
2022/02/21 10:37:58;;;;;;;;;15.75;15.00;;;;;13.10;52.43;100181.94;3724493;37;20616;-59
2022/02/21 10:40:29;;;;;;;;;14.00;12.75;;;;;13.08;51.93;100184.03;3724849;38;20600;-59
2022/02/21 10:43:14;;;;;;;;;16.50;15.75;;;;;13.12;52.28;100187.16;3724690;38;20800;-59
2022/02/21 10:45:45;;;;;;;;;14.75;13.00;;;;;13.08;52.09;100186.75;3725040;38;20688;-59
2022/02/21 10:48:16;;;;;;;;;11.25;10.00;;;;;12.97;50.87;100178.41;3724179;38;20575;-57
2022/02/21 10:51:01;;;;;;;;;14.50;14.00;;;;;13.00;52.57;100178.81;3723978;38;20532;-60
2022/02/21 10:53:47;;;;;;;;;9.00;8.75;;;;;12.91;50.08;100164.62;3724509;37;20879;-58
2022/02/21 10:56:17;;;;;;;;;9.25;8.00;;;;;12.86;50.40;100148.09;3724451;38;20522;-58
2022/02/21 10:58:44;;;;;;;;;9.00;8.00;;;;;12.98;50.95;100158.34;3724771;38;20629;-56
2022/02/21 11:01:12;;;;;;;;;9.75;7.50;;;;;12.92;50.32;100152.72;3724549;37;20690;-60
2022/02/21 11:03:39;;;;;;;;;7.00;7.00;;;;;12.87;49.87;100141.63;3724550;37;20655;-57
2022/02/21 11:06:08;;;;;;;;;12.00;9.25;;;;;12.90;50.16;100134.94;3724656;38;20495;-58
2022/02/21 11:08:39;;;;;;;;;10.00;9.25;;;;;12.91;49.08;100126.59;3724740;37;20514;-58
2022/02/21 11:11:12;;;;;;;;;12.50;11.50;;;;;12.93;49.24;100131.81;3724190;37;20502;-60
2022/02/21 11:13:45;;;;;;;;;12.00;11.50;;;;;13.04;49.57;100119.44;3724357;38;20551;-60
2022/02/21 11:16:14;;;;;;;;;10.75;10.75;;;;;13.08;48.34;100121.53;3724602;37;20474;-58
2022/02/21 11:18:42;;;;;;;;;9.50;7.75;;;;;13.09;46.94;100115.06;3725088;37;20486;-59